createdAt,value
2023-03-27T00:01:57.534Z,95646.97
2023-03-27T00:04:26.289Z,95649.06
2023-03-27T00:06:55.765Z,95653.34
2023-03-27T00:09:27.273Z,95646.31
2023-03-27T00:11:57.837Z,95649.06
2023-03-27T00:14:26.238Z,95649.72
2023-03-27T00:16:54.704Z,95648.34
2023-03-27T00:19:23.129Z,95637.94
2023-03-27T00:21:51.871Z,95640.34
2023-03-27T00:24:20.753Z,95637.50
2023-03-27T00:26:50.665Z,95631.75
2023-03-27T00:29:19.077Z,95630.31
2023-03-27T00:31:48.127Z,95633.81
2023-03-27T00:34:16.780Z,95642.13
2023-03-27T00:36:51.127Z,95645.16
2023-03-27T00:39:20.573Z,95645.78
2023-03-27T00:41:50.605Z,95653.28
2023-03-27T00:44:31.184Z,95643.69
2023-03-27T00:47:02.997Z,95645.16
2023-03-27T00:49:37.253Z,95640.38
2023-03-27T00:52:09.162Z,95639.91
2023-03-27T00:54:40.363Z,95642.63
2023-03-27T00:57:16.319Z,95641.84
2023-03-27T00:59:47.832Z,95640.91
2023-03-27T01:02:19.248Z,95635.00
2023-03-27T01:04:50.384Z,95629.72
2023-03-27T01:07:19.920Z,95626.88
2023-03-27T01:09:49.220Z,95637.84
2023-03-27T01:12:41.059Z,95639.91
2023-03-27T01:15:33.952Z,95634.81
2023-03-27T01:18:23.553Z,95651.38
2023-03-27T01:21:55.670Z,95639.31
2023-03-27T01:25:13.185Z,95635.81
2023-03-27T01:28:22.164Z,95643.31
2023-03-27T01:31:01.459Z,95644.59
2023-03-27T01:34:01.130Z,95638.38
2023-03-27T01:37:05.611Z,95646.66
2023-03-27T01:39:49.628Z,95641.91
2023-03-27T01:42:24.259Z,95652.41
2023-03-27T01:45:01.665Z,95649.38
2023-03-27T01:47:50.212Z,95642.38
2023-03-27T01:50:28.024Z,95645.22
2023-03-27T01:53:04.809Z,95648.25
2023-03-27T01:55:39.195Z,95646.66
2023-03-27T01:58:14.001Z,95640.78
2023-03-27T02:00:53.047Z,95645.56
2023-03-27T02:03:40.213Z,95647.78
2023-03-27T02:06:16.994Z,95643.16
2023-03-27T02:08:52.037Z,95657.34
2023-03-27T02:11:27.329Z,95644.28
2023-03-27T02:14:01.009Z,95649.22
2023-03-27T02:16:35.719Z,95641.09
2023-03-27T02:19:14.793Z,95657.34
2023-03-27T02:21:43.516Z,95649.06
2023-03-27T02:24:13.188Z,95661.94
2023-03-27T02:26:43.325Z,95656.53
2023-03-27T02:29:36.853Z,95661.13
2023-03-27T02:32:25.403Z,95657.66
2023-03-27T02:35:13.740Z,95663.69
2023-03-27T02:37:59.452Z,95672.47
2023-03-27T02:41:06.559Z,95670.06
2023-03-27T02:44:02.081Z,95671.19
2023-03-27T02:46:53.229Z,95678.34
2023-03-27T02:49:29.980Z,95687.25
2023-03-27T02:52:04.698Z,95678.19
2023-03-27T02:54:41.470Z,95687.25
2023-03-27T02:57:16.302Z,95699.06
2023-03-27T03:00:28.114Z,95703.69
2023-03-27T03:03:28.060Z,95713.41
2023-03-27T03:06:07.227Z,95714.81
2023-03-27T03:08:38.867Z,95717.72
2023-03-27T03:11:15.258Z,95721.84
2023-03-27T03:13:43.840Z,95729.03
2023-03-27T03:16:14.424Z,95723.59
2023-03-27T03:18:42.954Z,95734.09
2023-03-27T03:21:11.311Z,95732.03
2023-03-27T03:23:40.243Z,95737.78
2023-03-27T03:26:09.950Z,95749.88
2023-03-27T03:29:00.498Z,95758.13
2023-03-27T03:31:44.370Z,95762.91
2023-03-27T03:34:16.287Z,95779.31
2023-03-27T03:36:49.227Z,95777.22
2023-03-27T03:39:21.286Z,95774.47
2023-03-27T03:41:52.059Z,95787.72
2023-03-27T03:44:20.931Z,95785.16
2023-03-27T03:46:51.051Z,95797.22
2023-03-27T03:49:22.997Z,95802.91
2023-03-27T03:52:03.285Z,95801.63
2023-03-27T03:54:33.420Z,95816.91
2023-03-27T03:57:03.253Z,95837.25
2023-03-27T03:59:32.457Z,95835.66
2023-03-27T04:02:38.635Z,95848.97
2023-03-27T04:05:13.100Z,95847.72
2023-03-27T04:07:42.630Z,95859.63
2023-03-27T04:10:34.843Z,95871.38
2023-03-27T04:13:07.560Z,95882.03
2023-03-27T04:15:47.037Z,95894.44
2023-03-27T04:18:32.701Z,95889.94
2023-03-27T04:21:04.281Z,95905.09
2023-03-27T04:23:33.927Z,95908.09
2023-03-27T04:26:03.977Z,95909.81
2023-03-27T04:28:55.508Z,95923.94
2023-03-27T04:31:46.784Z,95937.31
2023-03-27T04:34:39.780Z,95942.38
2023-03-27T04:37:34.468Z,95941.88
2023-03-27T04:40:18.166Z,95955.50
2023-03-27T04:42:47.021Z,95961.25
2023-03-27T04:45:20.260Z,95964.13
2023-03-27T04:47:51.482Z,95978.69
2023-03-27T04:50:22.899Z,95986.59
2023-03-27T04:52:51.875Z,96007.22
2023-03-27T04:55:25.844Z,95995.72
2023-03-27T04:57:56.684Z,96012.53
2023-03-27T05:00:25.439Z,96019.03
2023-03-27T05:03:13.913Z,96023.34
2023-03-27T05:06:10.094Z,96032.25
2023-03-27T05:08:39.228Z,96043.06
2023-03-27T05:11:08.803Z,96046.66
2023-03-27T05:13:42.437Z,96070.00
2023-03-27T05:16:12.158Z,96078.41
2023-03-27T05:18:46.236Z,96086.59
2023-03-27T05:21:16.816Z,96093.41
2023-03-27T05:23:45.700Z,96098.59
2023-03-27T05:26:14.265Z,96107.00
2023-03-27T05:28:58.619Z,96117.53
2023-03-27T05:31:29.383Z,96127.44
2023-03-27T05:34:09.848Z,96142.75
2023-03-27T05:36:42.900Z,96141.75
2023-03-27T05:39:12.185Z,96152.25
2023-03-27T05:41:43.377Z,96152.34
2023-03-27T05:44:11.861Z,96155.66
2023-03-27T05:46:44.111Z,96170.88
2023-03-27T05:49:20.543Z,96176.44
2023-03-27T05:51:55.290Z,96182.38
2023-03-27T05:54:24.110Z,96184.53
2023-03-27T05:56:59.809Z,96188.06
2023-03-27T05:59:28.746Z,96199.09
2023-03-27T06:02:07.515Z,96200.75
2023-03-27T06:04:46.302Z,96208.88
2023-03-27T06:07:28.011Z,96225.16
2023-03-27T06:09:59.309Z,96228.00
2023-03-27T06:12:35.112Z,96230.47
2023-03-27T06:15:14.594Z,96235.81
2023-03-27T06:17:49.060Z,96250.63
2023-03-27T06:20:20.085Z,96249.53
2023-03-27T06:22:59.506Z,96263.13
2023-03-27T06:25:35.219Z,96272.81
2023-03-27T06:28:08.096Z,96282.75
2023-03-27T06:30:46.177Z,96286.78
2023-03-27T06:33:38.567Z,96277.25
2023-03-27T06:36:10.254Z,96300.19
2023-03-27T06:38:44.019Z,96306.31
2023-03-27T06:41:13.360Z,96315.09
2023-03-27T06:44:14.084Z,96325.50
2023-03-27T06:47:03.157Z,96330.16
2023-03-27T06:49:36.114Z,96352.59
2023-03-27T06:52:12.732Z,96354.16
2023-03-27T06:54:44.018Z,96353.97
2023-03-27T06:57:13.733Z,96363.81
2023-03-27T06:59:51.515Z,96372.66
2023-03-27T07:02:24.571Z,96377.13
2023-03-27T07:05:30.856Z,96387.94
2023-03-27T07:08:05.480Z,96397.13
2023-03-27T07:10:59.771Z,96399.28
2023-03-27T07:13:39.374Z,96408.34
2023-03-27T07:16:12.740Z,96414.13
2023-03-27T07:18:42.346Z,96432.81
2023-03-27T07:21:13.537Z,96418.28
2023-03-27T07:23:42.077Z,96430.56
2023-03-27T07:26:14.593Z,96428.13
2023-03-27T07:29:00.838Z,96438.66
2023-03-27T07:31:51.097Z,96452.91
2023-03-27T07:34:18.581Z,96456.47
2023-03-27T07:37:06.087Z,96475.88
2023-03-27T07:39:36.509Z,96476.91
2023-03-27T07:42:06.981Z,96481.13
2023-03-27T07:44:55.625Z,96492.44
2023-03-27T07:47:26.045Z,96510.25
2023-03-27T07:49:54.981Z,96499.91
2023-03-27T07:52:24.800Z,96514.06
2023-03-27T07:55:01.771Z,96519.59
2023-03-27T07:57:57.237Z,96522.94
2023-03-27T08:00:29.930Z,96524.94
2023-03-27T08:03:14.144Z,96536.38
2023-03-27T08:05:56.060Z,96527.38
2023-03-27T08:08:33.420Z,96541.56
2023-03-27T08:11:04.080Z,96543.13
2023-03-27T08:13:45.394Z,96556.19
2023-03-27T08:16:18.287Z,96559.28
2023-03-27T08:18:49.812Z,96572.81
2023-03-27T08:21:18.798Z,96582.59
2023-03-27T08:23:51.876Z,96584.63
2023-03-27T08:26:40.518Z,96595.16
2023-03-27T08:29:14.356Z,96596.63
2023-03-27T08:31:47.716Z,96608.13
2023-03-27T08:34:17.720Z,96613.31
2023-03-27T08:36:48.811Z,96614.56
2023-03-27T08:39:18.789Z,96622.59
2023-03-27T08:42:03.487Z,96626.31
2023-03-27T08:44:38.640Z,96629.06
2023-03-27T08:47:20.700Z,96634.47
2023-03-27T08:50:29.029Z,96644.41
2023-03-27T08:53:21.199Z,96648.94
2023-03-27T08:55:49.978Z,96659.75
2023-03-27T08:58:24.409Z,96659.06
2023-03-27T09:01:11.634Z,96661.38
2023-03-27T09:03:54.316Z,96672.69
2023-03-27T09:06:28.923Z,96680.97
2023-03-27T09:09:19.776Z,96677.06
2023-03-27T09:12:04.026Z,96692.69
2023-03-27T09:14:42.144Z,96694.81
2023-03-27T09:17:23.539Z,96693.47
2023-03-27T09:19:58.056Z,96707.78
2023-03-27T09:22:33.199Z,96719.53
2023-03-27T09:25:29.051Z,96722.16
2023-03-27T09:28:03.549Z,96734.28
2023-03-27T09:30:40.389Z,96736.03
2023-03-27T09:33:30.482Z,96734.84
2023-03-27T09:36:00.752Z,96738.94
2023-03-27T09:38:36.973Z,96737.75
2023-03-27T09:41:14.209Z,96753.09
2023-03-27T09:43:53.606Z,96746.44
2023-03-27T09:46:26.099Z,96746.28
2023-03-27T09:49:13.602Z,96757.16
2023-03-27T09:51:50.327Z,96766.50
2023-03-27T09:54:53.346Z,96765.66
2023-03-27T09:57:34.055Z,96762.66
2023-03-27T10:00:14.481Z,96770.25
2023-03-27T10:03:03.873Z,96773.41
2023-03-27T10:05:35.887Z,96772.06
2023-03-27T10:08:32.234Z,96781.84
2023-03-27T10:11:19.848Z,96782.72
2023-03-27T10:13:53.814Z,96792.31
2023-03-27T10:16:27.865Z,96790.44
2023-03-27T10:19:22.954Z,96793.28
2023-03-27T10:21:57.138Z,96801.75
2023-03-27T10:24:35.997Z,96810.19
2023-03-27T10:27:27.533Z,96815.28
2023-03-27T10:30:33.931Z,96811.25
2023-03-27T10:33:33.986Z,96811.88
2023-03-27T10:36:38.260Z,96822.44
2023-03-27T10:39:16.167Z,96821.47
2023-03-27T10:41:56.349Z,96822.91
2023-03-27T10:44:28.830Z,96824.13
2023-03-27T10:46:59.634Z,96834.50
2023-03-27T10:49:42.595Z,96827.00
2023-03-27T10:52:24.549Z,96832.63
2023-03-27T10:55:48.775Z,96840.88
2023-03-27T10:58:32.653Z,96845.31
2023-03-27T11:01:12.964Z,96835.94
2023-03-27T11:03:55.065Z,96850.00
2023-03-27T11:06:34.124Z,96844.06
2023-03-27T11:09:16.195Z,96844.72
2023-03-27T11:12:04.387Z,96845.81
2023-03-27T11:14:53.430Z,96858.50
2023-03-27T11:17:31.416Z,96862.25
2023-03-27T11:20:27.332Z,96866.59
2023-03-27T11:23:22.567Z,96882.91
2023-03-27T11:26:16.783Z,96872.50
2023-03-27T11:28:58.925Z,96863.16
2023-03-27T11:31:46.100Z,96871.19
2023-03-27T11:34:28.613Z,96874.59
2023-03-27T11:37:07.993Z,96879.56
2023-03-27T11:39:53.193Z,96883.78
2023-03-27T11:42:25.597Z,96888.72
2023-03-27T11:44:57.556Z,96899.53
2023-03-27T11:48:14.362Z,96891.09
2023-03-27T11:51:00.008Z,96892.16
2023-03-27T11:54:00.664Z,96890.94
2023-03-27T11:56:54.475Z,96904.69
2023-03-27T12:00:28.070Z,96909.91
2023-03-27T12:03:36.831Z,96916.72
2023-03-27T12:06:16.642Z,96913.25
2023-03-27T12:09:11.426Z,96916.31
2023-03-27T12:12:24.578Z,96924.16
2023-03-27T12:15:15.246Z,96931.97
2023-03-27T12:18:04.026Z,96940.44
2023-03-27T12:20:56.312Z,96943.13
2023-03-27T12:24:07.753Z,96941.50
2023-03-27T12:27:26.181Z,96954.59
2023-03-27T12:30:28.877Z,96962.84
2023-03-27T12:33:41.453Z,96965.44
2023-03-27T12:36:18.894Z,96965.25
2023-03-27T12:38:49.091Z,96970.91
2023-03-27T12:41:27.281Z,96962.63
2023-03-27T12:44:22.102Z,96969.88
2023-03-27T12:47:18.277Z,96951.78
2023-03-27T12:49:56.934Z,96957.28
2023-03-27T12:52:30.334Z,96952.00
2023-03-27T12:55:34.313Z,96955.28
2023-03-27T12:58:06.144Z,96953.59
2023-03-27T13:01:09.374Z,96956.88
2023-03-27T13:04:18.287Z,96960.34
2023-03-27T13:06:57.781Z,96961.75
2023-03-27T13:10:05.254Z,96967.91
2023-03-27T13:13:21.875Z,96982.63
2023-03-27T13:16:12.698Z,97006.47
2023-03-27T13:19:09.335Z,97012.25
2023-03-27T13:22:13.456Z,97007.09
2023-03-27T13:25:11.308Z,97012.53
2023-03-27T13:28:08.867Z,97011.56
2023-03-27T13:30:48.915Z,97025.41
2023-03-27T13:33:47.754Z,97005.41
2023-03-27T13:36:33.550Z,96999.22
2023-03-27T13:39:25.137Z,97007.38
2023-03-27T13:42:12.866Z,96999.91
2023-03-27T13:45:00.386Z,96997.72
2023-03-27T13:48:28.577Z,96987.81
2023-03-27T13:51:51.824Z,96997.81
2023-03-27T13:55:50.036Z,96992.00
2023-03-27T13:59:48.118Z,96984.94
2023-03-27T14:03:18.788Z,96987.84
2023-03-27T14:06:39.868Z,96991.81
2023-03-27T14:09:21.452Z,97005.34
2023-03-27T14:12:20.537Z,97006.31
2023-03-27T14:15:39.939Z,97004.13
2023-03-27T14:19:06.508Z,97003.19
2023-03-27T14:21:56.167Z,97014.50
2023-03-27T14:24:38.291Z,96999.09
2023-03-27T14:27:23.760Z,97014.84
2023-03-27T14:30:09.224Z,97025.69
2023-03-27T14:32:41.009Z,97025.25
2023-03-27T14:35:27.526Z,97063.19
2023-03-27T14:38:09.057Z,97072.81
2023-03-27T14:40:50.231Z,97096.56
2023-03-27T14:43:22.902Z,97096.81
2023-03-27T14:46:01.320Z,97095.44
2023-03-27T14:48:34.247Z,97097.88
2023-03-27T14:51:13.612Z,97089.78
2023-03-27T14:53:46.323Z,97096.25
2023-03-27T14:56:30.495Z,97095.44
2023-03-27T14:59:38.927Z,97101.16
2023-03-27T15:02:21.415Z,97115.41
2023-03-27T15:04:51.823Z,97123.97
2023-03-27T15:07:28.557Z,97118.31
2023-03-27T15:10:22.555Z,97116.44
2023-03-27T15:13:27.931Z,97106.28
2023-03-27T15:16:01.004Z,97107.91
2023-03-27T15:18:38.431Z,97102.66
2023-03-27T15:21:19.967Z,97096.84
2023-03-27T15:24:00.949Z,97091.28
2023-03-27T15:26:35.280Z,97097.75
2023-03-27T15:29:18.023Z,97088.72
2023-03-27T15:31:51.245Z,97099.50
2023-03-27T15:34:34.289Z,97100.81
2023-03-27T15:37:07.526Z,97111.56
2023-03-27T15:40:27.191Z,97113.66
2023-03-27T15:43:04.496Z,97110.75
2023-03-27T15:45:43.403Z,97108.25
2023-03-27T15:48:21.912Z,97106.09
2023-03-27T15:50:58.377Z,97099.28
2023-03-27T15:53:40.008Z,97109.41
2023-03-27T15:56:23.195Z,97113.81
2023-03-27T15:58:55.312Z,97110.56
2023-03-27T16:01:29.628Z,97109.50
2023-03-27T16:04:05.340Z,97121.94
2023-03-27T16:06:39.997Z,97128.69
2023-03-27T16:09:24.960Z,97127.88
2023-03-27T16:11:55.240Z,97130.31
2023-03-27T16:14:32.170Z,97132.13
2023-03-27T16:17:20.896Z,97130.56
2023-03-27T16:19:56.440Z,97132.19
2023-03-27T16:22:30.660Z,97123.72
2023-03-27T16:25:01.619Z,97130.75
2023-03-27T16:27:38.396Z,97126.94
2023-03-27T16:30:10.975Z,97127.00
2023-03-27T16:32:41.154Z,97130.34
2023-03-27T16:35:10.234Z,97131.00
2023-03-27T16:37:39.486Z,97130.81
2023-03-27T16:40:10.429Z,97139.41
2023-03-27T16:42:39.327Z,97134.59
2023-03-27T16:45:09.713Z,97128.34
2023-03-27T16:47:38.296Z,97137.00
2023-03-27T16:50:19.724Z,97128.69
2023-03-27T16:52:50.421Z,97136.22
2023-03-27T16:55:19.059Z,97134.88
2023-03-27T16:57:47.506Z,97132.72
2023-03-27T17:00:19.999Z,97140.31
2023-03-27T17:02:49.169Z,97140.53
2023-03-27T17:05:19.401Z,97150.56
2023-03-27T17:07:48.394Z,97147.59
2023-03-27T17:10:17.708Z,97149.75
2023-03-27T17:12:46.176Z,97140.31
2023-03-27T17:15:16.170Z,97150.84
2023-03-27T17:17:45.336Z,97149.75
2023-03-27T17:20:14.053Z,97152.19
2023-03-27T17:22:44.794Z,97157.31
2023-03-27T17:25:14.254Z,97160.81
2023-03-27T17:27:43.083Z,97164.31
2023-03-27T17:30:12.996Z,97166.75
2023-03-27T17:32:42.482Z,97166.22
2023-03-27T17:35:11.699Z,97170.53
2023-03-27T17:37:40.287Z,97179.97
2023-03-27T17:40:14.398Z,97172.41
2023-03-27T17:42:43.310Z,97189.13
2023-03-27T17:45:19.591Z,97192.09
2023-03-27T17:47:50.427Z,97191.53
2023-03-27T17:50:19.423Z,97193.41
2023-03-27T17:52:47.764Z,97197.72
2023-03-27T17:55:17.956Z,97207.69
2023-03-27T17:57:51.051Z,97210.66
2023-03-27T18:00:28.163Z,97213.34
2023-03-27T18:02:56.806Z,97220.84
2023-03-27T18:05:26.669Z,97222.19
2023-03-27T18:07:55.622Z,97225.16
2023-03-27T18:10:26.813Z,97223.75
2023-03-27T18:12:55.480Z,97227.81
2023-03-27T18:15:24.268Z,97228.28
2023-03-27T18:17:52.931Z,97233.97
2023-03-27T18:20:21.366Z,97242.63
2023-03-27T18:22:50.112Z,97247.97
2023-03-27T18:25:19.524Z,97255.19
2023-03-27T18:27:49.249Z,97255.72
2023-03-27T18:30:19.150Z,97254.09
2023-03-27T18:32:48.634Z,97256.16
2023-03-27T18:35:19.833Z,97257.81
2023-03-27T18:37:48.432Z,97265.81
2023-03-27T18:40:19.119Z,97263.66
2023-03-27T18:42:49.302Z,97259.91
2023-03-27T18:45:18.687Z,97266.53
2023-03-27T18:47:47.236Z,97260.03
2023-03-27T18:50:16.733Z,97272.53
2023-03-27T18:52:45.342Z,97273.84
2023-03-27T18:55:15.137Z,97277.94
2023-03-27T18:57:43.522Z,97282.00
2023-03-27T19:00:18.461Z,97280.88
2023-03-27T19:02:48.031Z,97294.00
2023-03-27T19:05:17.855Z,97282.34
2023-03-27T19:07:46.906Z,97294.72
2023-03-27T19:10:15.281Z,97292.28
2023-03-27T19:12:49.702Z,97295.22
2023-03-27T19:15:41.965Z,97290.34
2023-03-27T19:18:30.538Z,97287.41
2023-03-27T19:21:17.959Z,97290.09
2023-03-27T19:23:50.551Z,97293.59
2023-03-27T19:26:22.845Z,97300.81
2023-03-27T19:28:51.376Z,97302.63
2023-03-27T19:31:21.611Z,97307.41
2023-03-27T19:33:50.021Z,97308.72
2023-03-27T19:36:18.716Z,97304.41
2023-03-27T19:38:47.231Z,97307.28
2023-03-27T19:41:15.664Z,97305.41
2023-03-27T19:43:44.433Z,97306.13
2023-03-27T19:46:16.118Z,97305.91
2023-03-27T19:48:49.644Z,97303.53
2023-03-27T19:51:30.289Z,97304.28
2023-03-27T19:53:58.695Z,97301.59
2023-03-27T19:56:28.451Z,97317.44
2023-03-27T19:58:57.662Z,97316.31
2023-03-27T20:01:28.377Z,97319.50
2023-03-27T20:03:58.877Z,97325.19
2023-03-27T20:06:28.895Z,97333.47
2023-03-27T20:09:00.713Z,97326.75
2023-03-27T20:11:29.577Z,97324.41
2023-03-27T20:13:59.173Z,97327.00
2023-03-27T20:16:29.579Z,97333.41
2023-03-27T20:19:05.699Z,97330.06
2023-03-27T20:21:38.739Z,97337.56
2023-03-27T20:24:12.547Z,97339.66
2023-03-27T20:26:48.382Z,97326.88
2023-03-27T20:29:24.085Z,97331.81
2023-03-27T20:31:52.556Z,97330.50
2023-03-27T20:34:24.043Z,97336.59
2023-03-27T20:36:55.100Z,97333.47
2023-03-27T20:39:55.957Z,97337.28
2023-03-27T20:42:26.612Z,97338.31
2023-03-27T20:44:58.257Z,97340.59
2023-03-27T20:47:27.141Z,97335.88
2023-03-27T20:49:59.098Z,97336.75
2023-03-27T20:52:28.438Z,97336.63
2023-03-27T20:54:57.018Z,97337.75
2023-03-27T20:57:25.450Z,97340.94
2023-03-27T20:59:54.355Z,97345.44
2023-03-27T21:02:23.735Z,97336.97
2023-03-27T21:04:52.568Z,97337.22
2023-03-27T21:07:22.429Z,97338.47
2023-03-27T21:09:50.953Z,97342.06
2023-03-27T21:12:19.403Z,97341.06
2023-03-27T21:14:48.019Z,97358.97
2023-03-27T21:17:16.416Z,97355.91
2023-03-27T21:19:44.949Z,97355.41
2023-03-27T21:22:13.862Z,97355.00
2023-03-27T21:24:44.415Z,97355.56
2023-03-27T21:27:12.908Z,97354.56
2023-03-27T21:29:41.270Z,97355.13
2023-03-27T21:32:10.200Z,97359.69
2023-03-27T21:34:39.310Z,97364.13
2023-03-27T21:37:08.270Z,97360.78
2023-03-27T21:39:36.633Z,97362.09
2023-03-27T21:42:06.608Z,97374.34
2023-03-27T21:44:35.429Z,97371.72
2023-03-27T21:47:03.770Z,97362.75
2023-03-27T21:49:32.288Z,97374.00
2023-03-27T21:52:01.178Z,97370.94
2023-03-27T21:54:29.750Z,97379.22
2023-03-27T21:56:58.082Z,97373.41
2023-03-27T21:59:30.208Z,97377.00
2023-03-27T22:01:59.018Z,97379.13
2023-03-27T22:04:27.551Z,97382.63
2023-03-27T22:06:56.076Z,97392.81
2023-03-27T22:09:25.069Z,97393.25
2023-03-27T22:11:53.896Z,97396.28
2023-03-27T22:14:22.372Z,97400.69
2023-03-27T22:16:52.410Z,97395.56
2023-03-27T22:19:20.863Z,97402.00
2023-03-27T22:21:49.314Z,97406.56
2023-03-27T22:24:17.897Z,97405.34
2023-03-27T22:26:46.646Z,97410.78
2023-03-27T22:29:15.118Z,97417.34
2023-03-27T22:31:43.748Z,97411.81
2023-03-27T22:34:13.832Z,97418.38
2023-03-27T22:36:43.169Z,97419.69
2023-03-27T22:39:11.752Z,97426.09
2023-03-27T22:41:40.345Z,97423.56
2023-03-27T22:44:08.708Z,97430.50
2023-03-27T22:46:37.711Z,97438.47
2023-03-27T22:49:06.909Z,97434.75
2023-03-27T22:51:36.854Z,97438.41
2023-03-27T22:54:06.415Z,97437.56
2023-03-27T22:56:34.868Z,97429.63
2023-03-27T22:59:03.480Z,97442.31
2023-03-27T23:01:32.481Z,97440.34
2023-03-27T23:04:01.938Z,97440.28
2023-03-27T23:06:30.667Z,97453.56
2023-03-27T23:09:01.402Z,97445.47
2023-03-27T23:11:30.218Z,97450.34
2023-03-27T23:13:58.917Z,97450.34
2023-03-27T23:16:27.761Z,97455.88
2023-03-27T23:18:56.807Z,97454.16
2023-03-27T23:21:25.560Z,97454.53
2023-03-27T23:23:54.247Z,97452.75
2023-03-27T23:26:24.406Z,97461.47
2023-03-27T23:28:53.130Z,97451.28
2023-03-27T23:31:21.744Z,97458.63
2023-03-27T23:33:52.186Z,97462.22
2023-03-27T23:36:23.562Z,97465.16
2023-03-27T23:38:53.682Z,97471.00
2023-03-27T23:41:24.175Z,97470.19
2023-03-27T23:43:54.019Z,97471.81
2023-03-27T23:46:22.816Z,97477.44
2023-03-27T23:48:51.497Z,97473.38
2023-03-27T23:51:19.932Z,97473.50
2023-03-27T23:53:48.615Z,97478.72
2023-03-27T23:56:16.979Z,97476.34
2023-03-27T23:58:46.765Z,97479.63
